ΕΜΥ, Εθνική Μετεωρολογική Υπηρεσία - Δελτία Καιρού, Προγνώσεις

ΑΕΡΟΝΑΥΤΙΛΙΑ

GREEK AIRPORTS CODES

TAF LGMG 250700Z 2509/2518 05013KT 9999 FEW015 SCT030 TEMPO 2509/2512 05013G25KT PROB30 TEMPO 2509/2512 RA FEW015 BKN025=

EUROPEAN AIRPORTS CODES

LFPO 262130Z 36010KT 330V040 9999 FEW023 BKN038 05/02 Q1024NOSIG=